createdAt,value
2018-08-30T00:07:47.456Z,54.1
2018-08-30T00:17:46.696Z,54.1
2018-08-30T00:27:45.940Z,54
2018-08-30T00:37:45.176Z,53.9
2018-08-30T00:47:44.418Z,53.9
2018-08-30T00:57:43.657Z,53.8
2018-08-30T01:07:42.898Z,53.8
2018-08-30T01:17:42.141Z,53.7
2018-08-30T01:27:41.380Z,53.6
2018-08-30T01:37:40.622Z,53.6
2018-08-30T01:47:39.861Z,53.5
2018-08-30T01:57:39.102Z,53.4
2018-08-30T02:07:38.343Z,53.4
2018-08-30T02:17:37.583Z,53.3
2018-08-30T02:27:36.842Z,53.3
2018-08-30T02:47:35.306Z,53.1
2018-08-30T02:57:34.547Z,53.1
2018-08-30T03:07:33.786Z,53.1
2018-08-30T03:17:33.030Z,53
2018-08-30T03:27:32.268Z,52.9
2018-08-30T03:37:31.512Z,52
2018-08-30T03:47:30.747Z,50.4
2018-08-30T03:57:29.987Z,50.2
2018-08-30T04:07:29.227Z,49.7
2018-08-30T04:17:28.468Z,49.4
2018-08-30T04:27:27.710Z,49
2018-08-30T04:37:26.948Z,48.3
2018-08-30T04:47:26.190Z,48.3
2018-08-30T04:57:25.434Z,46.1
2018-08-30T05:07:24.676Z,45.5
2018-08-30T05:17:23.917Z,45.6
2018-08-30T05:27:23.156Z,45.6
2018-08-30T05:37:22.400Z,45.6
2018-08-30T05:47:21.636Z,45.6
2018-08-30T05:57:20.875Z,45.7
2018-08-30T06:07:20.236Z,45.8
2018-08-30T06:17:19.352Z,46.1
2018-08-30T06:27:18.592Z,46.6
2018-08-30T06:37:17.832Z,47.2
2018-08-30T06:47:17.075Z,47.9
2018-08-30T06:57:16.312Z,48.8
2018-08-30T07:07:15.561Z,49.6
2018-08-30T07:17:14.794Z,50.4
2018-08-30T07:27:14.033Z,51.3
2018-08-30T07:37:13.275Z,52.3
2018-08-30T07:47:12.521Z,53.1
2018-08-30T07:57:11.759Z,53.7
2018-08-30T08:07:11.045Z,54.3
2018-08-30T08:17:10.249Z,54.8
2018-08-30T08:27:09.495Z,55.3
2018-08-30T08:37:08.729Z,55.9
2018-08-30T08:47:07.971Z,56.5
2018-08-30T08:57:07.216Z,57.1
2018-08-30T09:07:06.464Z,57.7
2018-08-30T09:17:05.708Z,58.4
2018-08-30T09:27:04.949Z,59.1
2018-08-30T09:37:04.192Z,59.8
2018-08-30T09:47:03.436Z,60.4
2018-08-30T09:57:02.842Z,61.1
2018-08-30T10:07:01.922Z,61.8
2018-08-30T10:17:01.166Z,62.5
2018-08-30T10:27:00.412Z,63.3
2018-08-30T10:36:59.712Z,63.9
2018-08-30T10:46:58.899Z,64.6
2018-08-30T10:56:58.148Z,65.3
2018-08-30T11:06:57.385Z,66.1
2018-08-30T11:16:56.628Z,66.8
2018-08-30T11:26:55.879Z,67.5
2018-08-30T11:36:55.121Z,68.2
2018-08-30T11:46:54.365Z,68.9
2018-08-30T11:56:53.605Z,69.5
2018-08-30T12:06:52.914Z,70.2
2018-08-30T12:16:52.096Z,70.9
2018-08-30T12:26:51.337Z,71.6
2018-08-30T12:36:50.683Z,72.2
2018-08-30T12:46:49.896Z,72.7
2018-08-30T12:56:49.262Z,73.1
2018-08-30T13:06:48.577Z,73.6
2018-08-30T13:16:47.763Z,74.2
2018-08-30T13:26:47.081Z,74.7
2018-08-30T13:36:46.557Z,75.2
2018-08-30T13:46:45.730Z,75.6
2018-08-30T13:56:45.057Z,76.1
2018-08-30T14:06:44.109Z,76.6
2018-08-30T14:16:43.046Z,77
2018-08-30T14:26:42.375Z,77.4
2018-08-30T14:36:41.521Z,77.8
2018-08-30T14:46:40.766Z,78.1
2018-08-30T14:56:40.005Z,78.3
2018-08-30T15:06:39.248Z,78.4
2018-08-30T15:16:38.497Z,78.6
2018-08-30T15:26:37.828Z,78.6
2018-08-30T15:36:36.984Z,78.7
2018-08-30T15:46:36.231Z,78.7
2018-08-30T15:56:35.475Z,78.7
2018-08-30T16:06:34.858Z,78.6
2018-08-30T16:16:33.962Z,78.4
2018-08-30T16:26:33.205Z,77.9
2018-08-30T16:36:32.451Z,73.4
2018-08-30T16:46:31.693Z,64.4
2018-08-30T16:56:30.942Z,63.1
2018-08-30T17:06:30.269Z,62.6
2018-08-30T17:16:29.507Z,61.8
2018-08-30T17:26:28.668Z,60.7
2018-08-30T17:36:27.908Z,60.4
2018-08-30T17:46:27.155Z,60.1
2018-08-30T17:56:26.396Z,57.3
2018-08-30T18:06:25.644Z,55.1
2018-08-30T18:16:24.889Z,54.8
2018-08-30T18:26:24.135Z,54.8
2018-08-30T18:36:23.378Z,53.9
2018-08-30T18:46:22.633Z,54.1
2018-08-30T18:56:21.871Z,54.1
2018-08-30T19:06:21.113Z,51.4
2018-08-30T19:16:20.362Z,49.1
2018-08-30T19:26:19.606Z,48.8
2018-08-30T19:36:18.849Z,44.8
2018-08-30T19:46:18.149Z,44.5
2018-08-30T19:56:17.341Z,43.8
2018-08-30T20:06:16.589Z,44
2018-08-30T20:16:15.830Z,44.3
2018-08-30T20:26:15.092Z,43.8
2018-08-30T20:36:14.319Z,43.9
2018-08-30T20:46:13.625Z,43.9
2018-08-30T20:56:12.806Z,44.1
2018-08-30T21:06:12.052Z,44.2
2018-08-30T21:16:11.293Z,44.3
2018-08-30T21:26:10.536Z,44.4
2018-08-30T21:36:09.887Z,44.5
2018-08-30T21:46:09.027Z,44.6
2018-08-30T21:56:08.267Z,44.7
2018-08-30T22:06:07.512Z,44.8
2018-08-30T22:16:06.754Z,44.9
2018-08-30T22:26:05.996Z,44.9
2018-08-30T22:36:05.247Z,45
2018-08-30T22:46:04.483Z,45.1
2018-08-30T22:56:03.729Z,45.2
2018-08-30T23:06:02.968Z,45.2
2018-08-30T23:16:02.212Z,45.3
2018-08-30T23:26:01.452Z,45.3
2018-08-30T23:36:00.694Z,45.4
2018-08-30T23:45:59.935Z,45.5
2018-08-30T23:55:59.177Z,45.6
